createdAt,value
2022-12-27T00:00:35.705Z,9.63
2022-12-27T00:03:02.264Z,7.87
2022-12-27T00:05:28.915Z,11.23
2022-12-27T00:07:55.642Z,10.20
2022-12-27T00:10:22.334Z,9.37
2022-12-27T00:12:48.817Z,17.47
2022-12-27T00:15:15.214Z,6.70
2022-12-27T00:17:41.756Z,5.13
2022-12-27T00:20:11.699Z,11.33
2022-12-27T00:22:39.021Z,6.03
2022-12-27T00:25:05.746Z,10.17
2022-12-27T00:27:32.201Z,9.93
2022-12-27T00:29:58.612Z,10.23
2022-12-27T00:32:25.063Z,8.23
2022-12-27T00:34:51.913Z,12.23
2022-12-27T00:37:18.575Z,13.10
2022-12-27T00:39:45.129Z,10.70
2022-12-27T00:42:11.555Z,7.20
2022-12-27T00:44:37.964Z,9.90
2022-12-27T00:47:04.789Z,5.73
2022-12-27T00:49:31.336Z,8.20
2022-12-27T00:51:57.751Z,8.43
2022-12-27T00:54:24.163Z,7.13
2022-12-27T00:56:50.647Z,8.53
2022-12-27T00:59:17.125Z,9.13
2022-12-27T01:01:43.679Z,8.30
2022-12-27T01:04:12.582Z,5.83
2022-12-27T01:06:39.215Z,10.10
2022-12-27T01:09:06.122Z,4.77
2022-12-27T01:11:33.431Z,7.73
2022-12-27T01:14:03.301Z,11.07
2022-12-27T01:16:31.307Z,6.83
2022-12-27T01:18:58.641Z,8.23
2022-12-27T01:21:25.446Z,7.03
2022-12-27T01:23:52.127Z,6.07
2022-12-27T01:26:21.264Z,10.80
2022-12-27T01:28:48.488Z,10.93
2022-12-27T01:31:19.563Z,12.50
2022-12-27T01:33:46.109Z,8.10
2022-12-27T01:36:18.862Z,12.03
2022-12-27T01:38:47.849Z,5.70
2022-12-27T01:41:40.481Z,8.03
2022-12-27T01:44:34.886Z,6.57
2022-12-27T01:47:02.452Z,11.10
2022-12-27T01:49:29.041Z,6.30
2022-12-27T01:51:55.526Z,8.87
2022-12-27T01:54:21.967Z,6.60
2022-12-27T01:56:48.383Z,13.07
2022-12-27T01:59:14.972Z,11.30
2022-12-27T02:01:44.251Z,12.90
2022-12-27T02:04:14.739Z,8.80
2022-12-27T02:06:41.403Z,12.67
2022-12-27T02:09:26.531Z,7.87
2022-12-27T02:11:56.754Z,15.40
2022-12-27T02:14:33.665Z,10.30
2022-12-27T02:17:11.072Z,7.87
2022-12-27T02:19:40.530Z,8.47
2022-12-27T02:23:08.482Z,10.10
2022-12-27T02:26:03.849Z,9.13
2022-12-27T02:28:33.220Z,9.67
2022-12-27T02:31:13.150Z,8.23
2022-12-27T02:33:46.828Z,9.23
2022-12-27T02:36:18.324Z,7.17
2022-12-27T02:38:49.838Z,12.27
2022-12-27T02:41:36.380Z,10.23
2022-12-27T02:44:21.417Z,9.90
2022-12-27T02:47:06.646Z,10.57
2022-12-27T02:49:55.004Z,9.33
2022-12-27T02:53:04.457Z,9.17
2022-12-27T02:56:09.064Z,13.23
2022-12-27T02:59:04.857Z,10.87
2022-12-27T03:02:13.388Z,9.63
2022-12-27T03:04:50.178Z,10.27
2022-12-27T03:07:32.981Z,10.10
2022-12-27T03:10:37.367Z,11.83
2022-12-27T03:13:34.250Z,9.97
2022-12-27T03:16:22.692Z,13.07
2022-12-27T03:19:11.482Z,8.40
2022-12-27T03:22:00.227Z,10.20
2022-12-27T03:24:49.880Z,13.87
2022-12-27T03:27:34.927Z,15.07
2022-12-27T03:30:24.138Z,8.63
2022-12-27T03:33:13.244Z,14.63
2022-12-27T03:36:10.318Z,9.80
2022-12-27T03:38:47.104Z,17.27
2022-12-27T03:41:36.377Z,13.13
2022-12-27T03:44:22.799Z,14.20
2022-12-27T03:46:51.910Z,8.87
2022-12-27T03:49:34.670Z,8.13
2022-12-27T03:52:11.530Z,9.30
2022-12-27T03:54:39.710Z,11.27
2022-12-27T03:57:08.752Z,12.83
2022-12-27T03:59:35.423Z,13.53
2022-12-27T04:02:02.138Z,12.33
2022-12-27T04:04:28.810Z,11.20
2022-12-27T04:06:55.547Z,19.90
2022-12-27T04:09:40.588Z,9.50
2022-12-27T04:12:25.655Z,10.43
2022-12-27T04:15:10.715Z,12.27
2022-12-27T04:17:55.779Z,14.47
2022-12-27T04:20:41.065Z,17.57
2022-12-27T04:23:26.581Z,9.30
2022-12-27T04:26:11.693Z,15.00
2022-12-27T04:28:56.777Z,11.60
2022-12-27T04:31:41.881Z,17.80
2022-12-27T04:34:27.053Z,9.33
2022-12-27T04:36:53.478Z,15.87
2022-12-27T04:39:19.954Z,14.93
2022-12-27T04:42:05.075Z,14.10
2022-12-27T04:44:50.191Z,11.40
2022-12-27T04:47:37.260Z,10.87
2022-12-27T04:50:23.385Z,19.70
2022-12-27T04:53:08.530Z,16.30
2022-12-27T04:55:34.967Z,15.33
2022-12-27T04:58:01.604Z,12.87
2022-12-27T05:00:48.727Z,16.83
2022-12-27T05:03:17.037Z,18.53
2022-12-27T05:05:44.272Z,11.40
2022-12-27T05:08:29.877Z,15.30
2022-12-27T05:11:14.850Z,17.23
2022-12-27T05:13:59.611Z,11.87
2022-12-27T05:16:31.655Z,14.03
2022-12-27T05:18:58.280Z,17.10
2022-12-27T05:21:24.965Z,11.73
2022-12-27T05:24:10.131Z,9.77
2022-12-27T05:26:38.249Z,11.40
2022-12-27T05:29:06.276Z,10.23
2022-12-27T05:31:33.001Z,14.83
2022-12-27T05:33:59.797Z,14.93
2022-12-27T05:36:27.359Z,13.53
2022-12-27T05:38:54.031Z,13.43
2022-12-27T05:41:20.440Z,15.33
2022-12-27T05:43:47.511Z,14.43
2022-12-27T05:46:16.206Z,13.93
2022-12-27T05:48:43.082Z,15.37
2022-12-27T05:51:12.583Z,15.33
2022-12-27T05:53:39.210Z,20.17
2022-12-27T05:56:05.728Z,13.20
2022-12-27T05:58:32.416Z,10.47
2022-12-27T06:00:59.528Z,13.70
2022-12-27T06:03:26.135Z,9.73
2022-12-27T06:05:52.871Z,8.93
2022-12-27T06:08:19.316Z,10.80
2022-12-27T06:10:45.739Z,11.03
2022-12-27T06:13:12.303Z,11.67
2022-12-27T06:15:38.791Z,13.27
2022-12-27T06:18:06.669Z,20.77
2022-12-27T06:20:33.132Z,12.23
2022-12-27T06:23:00.190Z,13.20
2022-12-27T06:25:26.605Z,16.07
2022-12-27T06:27:52.986Z,12.13
2022-12-27T06:30:19.657Z,12.17
2022-12-27T06:32:46.163Z,8.93
2022-12-27T06:35:12.684Z,15.73
2022-12-27T06:37:39.360Z,9.13
2022-12-27T06:40:06.463Z,8.20
2022-12-27T06:42:33.005Z,12.37
2022-12-27T06:44:59.468Z,14.63
2022-12-27T06:47:26.009Z,9.63
2022-12-27T06:49:52.462Z,14.93
2022-12-27T06:52:18.956Z,8.73
2022-12-27T06:54:45.381Z,10.37
2022-12-27T06:57:11.780Z,5.97
2022-12-27T06:59:38.256Z,10.73
2022-12-27T07:02:04.782Z,10.17
2022-12-27T07:04:31.323Z,8.90
2022-12-27T07:06:57.767Z,8.07
2022-12-27T07:09:24.277Z,10.10
2022-12-27T07:11:50.675Z,9.73
2022-12-27T07:14:17.108Z,11.50
2022-12-27T07:16:43.523Z,8.33
2022-12-27T07:19:09.969Z,12.17
2022-12-27T07:21:36.586Z,14.67
2022-12-27T07:24:03.056Z,12.20
2022-12-27T07:26:30.595Z,6.30
2022-12-27T07:28:59.190Z,11.47
2022-12-27T07:31:29.602Z,12.20
2022-12-27T07:33:57.013Z,9.33
2022-12-27T07:36:26.245Z,6.60
2022-12-27T07:38:53.138Z,10.67
2022-12-27T07:41:19.687Z,9.67
2022-12-27T07:43:46.204Z,8.50
2022-12-27T07:46:20.855Z,10.87
2022-12-27T07:48:47.909Z,15.27
2022-12-27T07:51:15.991Z,11.80
2022-12-27T07:53:43.471Z,13.03
2022-12-27T07:56:25.880Z,13.67
2022-12-27T07:58:53.600Z,10.23
2022-12-27T08:01:24.920Z,8.77
2022-12-27T08:03:51.534Z,11.60
2022-12-27T08:06:25.352Z,16.13
2022-12-27T08:08:52.900Z,11.57
2022-12-27T08:11:19.659Z,12.93
2022-12-27T08:13:46.617Z,10.70
2022-12-27T08:16:22.935Z,12.70
2022-12-27T08:18:49.422Z,12.07
2022-12-27T08:21:16.138Z,11.50
2022-12-27T08:23:42.742Z,8.73
2022-12-27T08:26:09.462Z,12.63
2022-12-27T08:28:35.937Z,12.67
2022-12-27T08:31:06.238Z,9.90
2022-12-27T08:33:32.683Z,11.13
2022-12-27T08:36:15.748Z,8.73
2022-12-27T08:38:53.599Z,11.83
2022-12-27T08:41:21.210Z,12.20
2022-12-27T08:43:47.996Z,12.47
2022-12-27T08:46:14.448Z,11.27
2022-12-27T08:48:41.173Z,9.13
2022-12-27T08:51:12.957Z,14.53
2022-12-27T08:53:41.115Z,10.17
2022-12-27T08:56:07.709Z,15.27
2022-12-27T08:58:34.270Z,16.87
2022-12-27T09:01:08.210Z,10.63
2022-12-27T09:03:34.864Z,10.60
2022-12-27T09:06:16.531Z,11.80
2022-12-27T09:08:44.427Z,12.53
2022-12-27T09:11:13.813Z,11.87
2022-12-27T09:13:40.468Z,12.50
2022-12-27T09:16:08.471Z,12.13
2022-12-27T09:18:34.889Z,9.57
2022-12-27T09:21:09.984Z,12.63
2022-12-27T09:23:36.490Z,10.77
2022-12-27T09:26:07.689Z,11.00
2022-12-27T09:28:35.010Z,11.37
2022-12-27T09:31:01.768Z,9.53
2022-12-27T09:33:28.942Z,8.97
2022-12-27T09:36:10.367Z,12.27
2022-12-27T09:38:37.823Z,9.47
2022-12-27T09:42:12.187Z,10.40
2022-12-27T09:44:25.393Z,7.47
2022-12-27T09:47:12.180Z,10.30
2022-12-27T09:49:46.194Z,7.47
2022-12-27T09:52:18.515Z,12.23
2022-12-27T09:54:44.833Z,8.97
2022-12-27T09:57:23.030Z,10.13
2022-12-27T09:59:51.480Z,4.93
2022-12-27T10:02:24.132Z,12.13
2022-12-27T10:08:05.733Z,9.10
2022-12-27T10:10:46.299Z,7.80
2022-12-27T10:13:23.594Z,9.07
2022-12-27T10:16:23.476Z,9.67
2022-12-27T10:19:08.896Z,10.67
2022-12-27T10:21:39.004Z,9.90
2022-12-27T10:24:26.203Z,9.93
2022-12-27T10:26:55.068Z,16.37
2022-12-27T10:29:29.628Z,13.70
2022-12-27T10:31:58.072Z,11.90
2022-12-27T10:34:24.820Z,8.77
2022-12-27T10:36:52.959Z,13.27
2022-12-27T10:39:21.898Z,14.50
2022-12-27T10:42:02.664Z,5.47
2022-12-27T10:44:29.510Z,15.70
2022-12-27T10:46:56.545Z,18.57
2022-12-27T10:49:31.156Z,10.83
2022-12-27T10:52:10.220Z,14.50
2022-12-27T10:54:51.543Z,10.57
2022-12-27T10:57:23.854Z,14.70
2022-12-27T11:00:18.062Z,10.63
2022-12-27T11:02:54.710Z,14.43
2022-12-27T11:05:32.452Z,12.30
2022-12-27T11:08:01.323Z,12.33
2022-12-27T11:10:31.373Z,14.97
2022-12-27T11:13:06.022Z,11.17
2022-12-27T11:15:35.605Z,15.90
2022-12-27T11:18:09.598Z,13.33
2022-12-27T11:20:41.155Z,11.53
2022-12-27T11:23:10.563Z,11.73
2022-12-27T11:25:46.945Z,12.27
2022-12-27T11:28:39.575Z,10.13
2022-12-27T11:31:12.105Z,15.20
2022-12-27T11:33:55.514Z,12.17
2022-12-27T11:36:32.413Z,8.07
2022-12-27T11:39:00.713Z,13.80
2022-12-27T11:41:37.477Z,8.20
2022-12-27T11:44:12.887Z,12.97
2022-12-27T11:47:17.039Z,12.37
2022-12-27T11:49:52.173Z,8.50
2022-12-27T11:52:35.008Z,12.07
2022-12-27T11:55:22.308Z,11.90
2022-12-27T11:58:08.565Z,12.27
2022-12-27T12:00:52.067Z,11.93
2022-12-27T12:03:48.781Z,12.97
2022-12-27T12:06:38.683Z,8.57
2022-12-27T12:09:18.526Z,9.67
2022-12-27T12:11:55.514Z,15.30
2022-12-27T12:14:24.871Z,10.70
2022-12-27T12:16:57.452Z,13.67
2022-12-27T12:19:48.197Z,12.10
2022-12-27T12:22:27.694Z,12.93
2022-12-27T12:25:22.471Z,16.53
2022-12-27T12:28:01.111Z,9.73
2022-12-27T12:30:33.753Z,8.17
2022-12-27T12:33:42.701Z,11.87
2022-12-27T12:36:34.510Z,14.50
2022-12-27T12:39:23.731Z,12.80
2022-12-27T12:42:02.359Z,11.70
2022-12-27T12:45:19.831Z,9.90
2022-12-27T12:48:12.463Z,15.43
2022-12-27T12:50:50.620Z,17.80
2022-12-27T12:53:26.722Z,10.40
2022-12-27T12:56:18.348Z,15.97
2022-12-27T12:59:17.314Z,12.10
2022-12-27T13:01:52.804Z,12.20
2022-12-27T13:05:00.536Z,12.07
2022-12-27T13:07:48.268Z,14.03
2022-12-27T13:10:27.705Z,11.93
2022-12-27T13:13:00.551Z,11.10
2022-12-27T13:15:41.742Z,10.23
2022-12-27T13:18:36.975Z,10.67
2022-12-27T13:21:42.380Z,17.80
2022-12-27T13:24:14.669Z,9.90
2022-12-27T13:26:56.063Z,15.37
2022-12-27T13:29:42.221Z,14.33
2022-12-27T13:32:50.338Z,11.27
2022-12-27T13:35:30.764Z,8.77
2022-12-27T13:38:26.594Z,10.27
2022-12-27T13:41:29.933Z,11.17
2022-12-27T13:44:10.095Z,13.63
2022-12-27T13:46:58.528Z,12.23
2022-12-27T13:50:02.851Z,19.17
2022-12-27T13:53:17.522Z,12.53
2022-12-27T13:55:49.683Z,16.07
2022-12-27T13:58:46.520Z,12.70
2022-12-27T14:01:28.179Z,10.37
2022-12-27T14:04:23.705Z,9.93
2022-12-27T14:07:02.150Z,16.20
2022-12-27T14:09:48.208Z,11.70
2022-12-27T14:12:33.990Z,13.53
2022-12-27T14:15:03.587Z,11.03
2022-12-27T14:17:42.293Z,17.20
2022-12-27T14:20:38.984Z,12.27
2022-12-27T14:23:24.398Z,10.47
2022-12-27T14:25:56.717Z,13.53
2022-12-27T14:28:59.503Z,13.87
2022-12-27T14:32:04.341Z,15.07
2022-12-27T14:34:59.321Z,9.27
2022-12-27T14:37:36.488Z,7.50
2022-12-27T14:40:12.254Z,14.67
2022-12-27T14:43:23.255Z,12.03
2022-12-27T14:46:17.398Z,9.33
2022-12-27T14:49:21.607Z,8.73
2022-12-27T14:52:15.895Z,13.77
2022-12-27T14:54:57.488Z,12.17
2022-12-27T14:57:42.535Z,13.60
2022-12-27T15:00:21.542Z,15.63
2022-12-27T15:03:07.886Z,9.13
2022-12-27T15:05:46.529Z,11.00
2022-12-27T15:08:21.853Z,12.80
2022-12-27T15:10:57.376Z,8.57
2022-12-27T15:13:46.728Z,11.17
2022-12-27T15:16:32.822Z,14.40
2022-12-27T15:19:17.424Z,9.07
2022-12-27T15:21:52.755Z,9.97
2022-12-27T15:24:28.090Z,14.10
2022-12-27T15:27:34.132Z,11.30
2022-12-27T15:30:25.313Z,15.17
2022-12-27T15:33:01.504Z,13.30
2022-12-27T15:35:50.304Z,13.53
2022-12-27T15:38:47.167Z,18.43
2022-12-27T15:41:22.224Z,13.13
2022-12-27T15:44:07.528Z,18.37
2022-12-27T15:46:41.289Z,13.20
2022-12-27T15:49:13.754Z,15.30
2022-12-27T15:51:58.614Z,14.47
2022-12-27T15:55:10.382Z,17.37
2022-12-27T15:58:05.729Z,15.67
2022-12-27T16:00:34.268Z,20.73
2022-12-27T16:03:34.766Z,12.07
2022-12-27T16:06:02.108Z,17.00
2022-12-27T16:08:37.689Z,16.53
2022-12-27T16:11:12.258Z,14.33
2022-12-27T16:13:44.576Z,18.63
2022-12-27T16:16:37.168Z,14.83
2022-12-27T16:19:10.536Z,14.60
2022-12-27T16:21:43.157Z,16.90
2022-12-27T16:24:19.952Z,27.73
2022-12-27T16:26:56.940Z,21.43
2022-12-27T16:29:30.103Z,21.67
2022-12-27T16:32:13.858Z,16.63
2022-12-27T16:34:40.529Z,16.20
2022-12-27T16:37:22.532Z,25.57
2022-12-27T16:39:58.303Z,17.17
2022-12-27T16:42:34.229Z,17.00
2022-12-27T16:45:25.599Z,15.90
2022-12-27T16:47:58.015Z,19.50
2022-12-27T16:50:42.790Z,21.10
2022-12-27T16:53:36.372Z,18.27
2022-12-27T16:56:16.474Z,22.20
2022-12-27T16:58:43.511Z,25.73
2022-12-27T17:01:25.396Z,16.40
2022-12-27T17:03:57.232Z,16.47
2022-12-27T17:06:33.276Z,23.17
2022-12-27T17:09:09.237Z,15.97
2022-12-27T17:11:41.873Z,18.50
2022-12-27T17:14:30.060Z,21.13
2022-12-27T17:16:58.717Z,18.70
2022-12-27T17:19:40.433Z,14.57
2022-12-27T17:22:08.336Z,21.07
2022-12-27T17:24:34.948Z,16.50
2022-12-27T17:27:12.059Z,16.47
2022-12-27T17:30:06.773Z,16.73
2022-12-27T17:33:00.473Z,20.17
2022-12-27T17:35:29.301Z,19.57
2022-12-27T17:38:07.301Z,21.77
2022-12-27T17:41:15.807Z,19.10
2022-12-27T17:44:20.274Z,19.37
2022-12-27T17:46:50.121Z,20.60
2022-12-27T17:49:16.955Z,16.43
2022-12-27T17:52:05.399Z,24.60
2022-12-27T17:54:50.421Z,22.00
2022-12-27T17:57:36.941Z,21.07
2022-12-27T18:00:06.350Z,16.83
2022-12-27T18:02:35.536Z,19.00
2022-12-27T18:05:05.265Z,20.13
2022-12-27T18:07:32.718Z,21.10
2022-12-27T18:10:21.919Z,17.47
2022-12-27T18:12:52.157Z,18.33
2022-12-27T18:15:22.247Z,20.70
2022-12-27T18:17:51.598Z,21.53
2022-12-27T18:20:30.326Z,15.73
2022-12-27T18:23:02.848Z,17.30
2022-12-27T18:25:31.711Z,17.77
2022-12-27T18:28:02.916Z,20.23
2022-12-27T18:30:33.028Z,16.47
2022-12-27T18:33:00.755Z,17.80
2022-12-27T18:35:27.623Z,17.33
2022-12-27T18:37:54.516Z,16.60
2022-12-27T18:40:23.385Z,17.00
2022-12-27T18:42:51.478Z,19.00
2022-12-27T18:45:22.440Z,19.13
2022-12-27T18:47:51.148Z,17.27
2022-12-27T18:50:18.980Z,21.10
2022-12-27T18:52:49.827Z,16.10
2022-12-27T18:55:26.689Z,16.87
2022-12-27T18:58:20.464Z,19.27
2022-12-27T19:00:58.963Z,20.13
2022-12-27T19:03:27.241Z,19.17
2022-12-27T19:06:10.913Z,18.83
2022-12-27T19:08:39.975Z,20.83
2022-12-27T19:11:07.072Z,19.67
2022-12-27T19:13:40.541Z,22.17
2022-12-27T19:16:07.356Z,16.63
2022-12-27T19:18:35.608Z,13.70
2022-12-27T19:21:04.597Z,20.80
2022-12-27T19:23:36.801Z,14.83
2022-12-27T19:26:16.954Z,16.67
2022-12-27T19:28:45.007Z,14.93
2022-12-27T19:31:19.273Z,14.63
2022-12-27T19:33:50.111Z,17.37
2022-12-27T19:36:16.574Z,17.10
2022-12-27T19:38:47.767Z,17.23
2022-12-27T19:41:14.891Z,17.00
2022-12-27T19:43:45.785Z,18.67
2022-12-27T19:46:13.453Z,18.07
2022-12-27T19:48:39.941Z,18.87
2022-12-27T19:51:07.373Z,19.37
2022-12-27T19:53:38.883Z,20.13
2022-12-27T19:56:07.655Z,22.20
2022-12-27T19:58:34.773Z,18.40
2022-12-27T20:01:01.304Z,25.87
2022-12-27T20:03:27.869Z,22.27
2022-12-27T20:06:14.132Z,21.80
2022-12-27T20:08:44.322Z,18.70
2022-12-27T20:11:16.428Z,21.07
2022-12-27T20:13:42.827Z,21.90
2022-12-27T20:16:12.103Z,25.13
2022-12-27T20:18:39.567Z,27.53
2022-12-27T20:21:07.306Z,21.87
2022-12-27T20:23:33.703Z,30.30
2022-12-27T20:26:00.151Z,25.10
2022-12-27T20:28:26.564Z,29.80
2022-12-27T20:30:52.982Z,20.77
2022-12-27T20:33:19.387Z,26.57
2022-12-27T20:35:54.985Z,18.97
2022-12-27T20:38:21.364Z,21.33
2022-12-27T20:40:47.845Z,27.77
2022-12-27T20:43:14.437Z,25.10
2022-12-27T20:45:40.853Z,25.90
2022-12-27T20:48:09.206Z,24.20
2022-12-27T20:50:39.614Z,17.93
2022-12-27T20:53:06.033Z,23.13
2022-12-27T20:55:34.249Z,21.87
2022-12-27T20:58:01.412Z,25.10
2022-12-27T21:00:27.919Z,20.10
2022-12-27T21:02:54.432Z,22.07
2022-12-27T21:05:21.168Z,16.93
2022-12-27T21:07:47.606Z,22.93
2022-12-27T21:10:14.155Z,18.57
2022-12-27T21:12:40.790Z,20.50
2022-12-27T21:15:10.767Z,18.10
2022-12-27T21:17:37.284Z,13.07
2022-12-27T21:20:06.242Z,17.00
2022-12-27T21:22:32.618Z,17.60
2022-12-27T21:24:59.164Z,17.40
2022-12-27T21:27:25.606Z,15.27
2022-12-27T21:29:52.139Z,15.13
2022-12-27T21:32:18.612Z,16.47
2022-12-27T21:34:45.040Z,13.93
2022-12-27T21:37:13.503Z,11.80
2022-12-27T21:39:40.274Z,15.93
2022-12-27T21:42:06.749Z,13.13
2022-12-27T21:44:35.395Z,12.57
2022-12-27T21:47:01.855Z,10.03
2022-12-27T21:49:28.307Z,14.70
2022-12-27T21:51:55.658Z,11.00
2022-12-27T21:54:22.159Z,16.60
2022-12-27T21:56:48.842Z,14.93
2022-12-27T21:59:15.463Z,9.43
2022-12-27T22:01:51.370Z,14.27
2022-12-27T22:04:22.107Z,10.47
2022-12-27T22:06:48.615Z,13.43
2022-12-27T22:09:15.129Z,9.77
2022-12-27T22:11:41.640Z,12.40
2022-12-27T22:14:08.109Z,9.33
2022-12-27T22:16:36.408Z,11.97
2022-12-27T22:19:05.764Z,12.13
2022-12-27T22:21:33.607Z,9.33
2022-12-27T22:24:01.212Z,11.07
2022-12-27T22:26:34.381Z,10.03
2022-12-27T22:29:02.147Z,11.80
2022-12-27T22:31:30.586Z,9.73
2022-12-27T22:33:57.224Z,7.13
2022-12-27T22:36:24.691Z,10.90
2022-12-27T22:38:51.273Z,9.70
2022-12-27T22:41:22.659Z,13.57
2022-12-27T22:43:54.364Z,8.93
2022-12-27T22:46:20.907Z,9.20
2022-12-27T22:48:55.276Z,10.97
2022-12-27T22:51:34.075Z,9.33
2022-12-27T22:54:01.320Z,10.03
2022-12-27T22:56:29.922Z,9.77
2022-12-27T22:58:56.547Z,10.00
2022-12-27T23:01:28.858Z,10.30
2022-12-27T23:03:56.885Z,11.20
2022-12-27T23:06:23.944Z,10.83
2022-12-27T23:08:50.741Z,9.93
2022-12-27T23:11:18.920Z,8.03
2022-12-27T23:13:45.813Z,12.63
2022-12-27T23:16:12.578Z,10.20
2022-12-27T23:18:41.896Z,11.93
2022-12-27T23:21:20.385Z,8.83
2022-12-27T23:23:49.402Z,10.43
2022-12-27T23:26:17.662Z,8.67
2022-12-27T23:28:45.253Z,6.63
2022-12-27T23:31:12.495Z,8.00
2022-12-27T23:33:40.192Z,12.10
2022-12-27T23:36:07.095Z,10.07
2022-12-27T23:38:33.752Z,9.37
2022-12-27T23:41:03.020Z,9.87
2022-12-27T23:43:54.914Z,7.07
2022-12-27T23:46:23.835Z,8.57
2022-12-27T23:48:50.763Z,7.90
2022-12-27T23:51:17.271Z,9.00
2022-12-27T23:53:43.819Z,6.00
2022-12-27T23:56:14.632Z,5.07
2022-12-27T23:58:41.382Z,7.80
